Terminal Aerodrome Forecast
Issued by NWS

Home | Current Version | Previous Version | Text Only | Print | Product List | Glossary On
Versions: 1 2 3 4 5 6 7 8 9 10 11 12 13 14
000
FTUS44 KCRP 271100
TAFLRD
TAF
KLRD 271129Z 2712/2812 14004KT 5SM BR BKN006 BKN200
      TEMPO 2712/2714 2SM BR OVC004
     FM271500 31007KT P6SM BKN012 BKN200
     FM271700 33008KT P6SM SCT025 OVC200
     FM272000 36014G19KT P6SM BKN022 OVC200
     FM280000 36012KT P6SM OVC018
     FM280600 36012KT P6SM OVC025=

USA.gov is the U.S. government's official web portal to all federal, state and local government web resources and services.